Time;durP1;ratioP1;P1;durP2;ratioP2;P2;SDS_P1;SDS_P2;PMS_P1;PMS_P2;Temp;Humidity;BMP_temperature;BMP_pressure;BME280_temperature;BME280_humidity;BME280_pressure;Samples;Min_cycle;Max_cycle;Signal;HPM_P1;HPM_P2
2024/01/13 00:02:16;;;;;;;;;;;2.30;99.90;;;;;;2618677;46;19982;-77
2024/01/13 00:04:46;;;;;;;;;;;1.90;99.90;;;;;;2618816;47;19952;-76
2024/01/13 00:07:16;;;;;;;;;;;2.30;99.90;;;;;;2623787;54;19942;-78
2024/01/13 00:09:46;;;;;;;;;;;2.30;99.90;;;;;;2624419;47;19951;-76
2024/01/13 00:12:18;;;;;;;;;;;2.20;99.90;;;;;;2606731;47;19947;-70
2024/01/13 00:14:48;;;;;;;;;;;2.20;99.90;;;;;;2616365;54;19953;-71
2024/01/13 00:17:18;;;;;;;;;;;2.10;99.90;;;;;;2616831;54;20451;-70
2024/01/13 00:19:47;;;;;;;;;;;2.10;99.90;;;;;;2618547;46;19957;-72
2024/01/13 00:22:17;;;;;;;;;;;2.00;99.90;;;;;;2618284;31;20427;-72
2024/01/13 00:24:47;;;;;;;;;;;2.10;99.90;;;;;;2621775;47;19943;-72
2024/01/13 00:27:20;;;;;;;;;;;2.10;99.90;;;;;;2618772;54;19950;-70
2024/01/13 00:29:50;;;;;;;;;;;2.10;99.90;;;;;;2618776;47;20520;-71
2024/01/13 00:32:20;;;;;;;;;;;2.20;99.90;;;;;;2613601;54;19990;-71
2024/01/13 00:34:49;;;;;;;;;;;2.20;99.90;;;;;;2617609;47;19954;-71
2024/01/13 00:37:19;;;;;;;;;;;2.20;99.90;;;;;;2617641;39;20366;-71
2024/01/13 00:39:48;;;;;;;;;;;2.10;99.90;;;;;;2615760;54;20047;-71
2024/01/13 00:42:21;;;;;;;;;;;2.30;99.90;;;;;;2615868;54;20066;-70
2024/01/13 00:44:50;;;;;;;;;;;2.30;99.90;;;;;;2616481;50;19947;-70
2024/01/13 00:47:20;;;;;;;;;;;2.20;99.90;;;;;;2616166;47;20853;-71
2024/01/13 00:49:50;;;;;;;;;;;2.20;99.90;;;;;;2616986;54;19939;-71
2024/01/13 00:52:19;;;;;;;;;;;2.20;99.90;;;;;;2615527;39;20349;-71
2024/01/13 00:54:49;;;;;;;;;;;2.20;99.90;;;;;;2615811;47;19942;-71
2024/01/13 00:57:21;;;;;;;;;;;2.30;99.90;;;;;;2615868;47;19942;-70
2024/01/13 00:59:51;;;;;;;;;;;2.30;99.90;;;;;;2615920;54;20030;-72
2024/01/13 01:02:21;;;;;;;;;;;2.30;99.90;;;;;;2616964;54;19946;-72
2024/01/13 01:04:50;;;;;;;;;;;2.30;99.90;;;;;;2615788;47;19945;-70
2024/01/13 01:07:20;;;;;;;;;;;2.20;99.90;;;;;;2615409;54;19943;-70
2024/01/13 01:09:50;;;;;;;;;;;2.10;99.90;;;;;;2615810;54;19942;-72
2024/01/13 01:12:22;;;;;;;;;;;2.00;99.90;;;;;;2618826;54;20022;-70
2024/01/13 01:14:52;;;;;;;;;;;2.00;99.90;;;;;;2623836;54;20030;-71
2024/01/13 01:17:21;;;;;;;;;;;1.90;99.90;;;;;;2618869;54;19950;-72
2024/01/13 01:19:51;;;;;;;;;;;2.00;99.90;;;;;;2615322;54;19949;-71
2024/01/13 01:22:21;;;;;;;;;;;2.00;99.90;;;;;;2616603;47;19946;-71
2024/01/13 01:24:50;;;;;;;;;;;2.00;99.90;;;;;;2615797;39;20209;-71
2024/01/13 01:27:22;;;;;;;;;;;2.00;99.90;;;;;;2615738;54;19946;-71
2024/01/13 01:29:52;;;;;;;;;;;2.00;99.90;;;;;;2617500;54;20501;-71
2024/01/13 01:32:22;;;;;;;;;;;2.00;99.90;;;;;;2617122;54;19947;-71
2024/01/13 01:34:52;;;;;;;;;;;2.00;99.90;;;;;;2617246;47;20002;-71
2024/01/13 01:37:23;;;;;;;;;;;2.10;99.90;;;;;;2616646;47;19951;-71
2024/01/13 01:39:53;;;;;;;;;;;2.10;99.90;;;;;;2616274;54;20437;-71
2024/01/13 01:42:26;;;;;;;;;;;2.20;99.90;;;;;;2617430;54;19935;-72
2024/01/13 01:44:55;;;;;;;;;;;2.20;99.90;;;;;;2617898;47;19939;-71
2024/01/13 01:47:25;;;;;;;;;;;2.20;99.90;;;;;;2616273;54;19946;-70
2024/01/13 01:49:55;;;;;;;;;;;2.20;99.90;;;;;;2615463;54;19955;-71
2024/01/13 01:52:25;;;;;;;;;;;2.20;99.90;;;;;;2615237;39;20370;-71
2024/01/13 01:54:55;;;;;;;;;;;2.30;99.90;;;;;;2615160;47;19955;-71
2024/01/13 01:57:27;;;;;;;;;;;2.30;99.90;;;;;;2615614;54;19946;-70
2024/01/13 01:59:57;;;;;;;;;;;2.30;99.90;;;;;;2616119;54;19955;-71
2024/01/13 02:02:27;;;;;;;;;;;2.30;99.90;;;;;;2615827;54;19938;-70
2024/01/13 02:05:02;;;;;;;;;;;2.70;99.90;;;;;;2618081;39;20357;-72
2024/01/13 02:07:34;;;;;;;;;;;2.20;99.90;;;;;;2616419;54;20059;-72
2024/01/13 02:10:04;;;;;;;;;;;2.30;99.90;;;;;;2614135;47;19949;-70
2024/01/13 02:12:36;;;;;;;;;;;2.30;99.90;;;;;;2614772;47;19939;-71
2024/01/13 02:15:06;;;;;;;;;;;2.30;99.90;;;;;;2616507;54;20701;-70
2024/01/13 02:17:37;;;;;;;;;;;2.30;99.90;;;;;;2616450;47;19953;-70
2024/01/13 02:31:10;;;;;;;;;;;2.30;99.90;;;;;;2616278;54;19934;-84
2024/01/13 02:33:40;;;;;;;;;;;2.30;99.90;;;;;;2630655;47;19966;-83
2024/01/13 02:36:10;;;;;;;;;;;2.30;99.90;;;;;;2630777;54;19942;-82
2024/01/13 02:38:41;;;;;;;;;;;2.30;99.90;;;;;;2631103;47;19973;-82
2024/01/13 02:41:11;;;;;;;;;;;2.30;99.90;;;;;;2631477;54;19927;-83
2024/01/13 02:43:41;;;;;;;;;;;1.40;99.90;;;;;;2631511;54;19933;-82
2024/01/13 02:46:14;;;;;;;;;;;2.30;99.90;;;;;;2630328;47;19943;-83
2024/01/13 02:48:46;;;;;;;;;;;2.30;99.90;;;;;;2630048;47;19926;-83
2024/01/13 02:51:18;;;;;;;;;;;2.30;99.90;;;;;;2630063;54;19926;-84
2024/01/13 02:53:48;;;;;;;;;;;2.30;99.90;;;;;;2629927;47;19942;-84
2024/01/13 02:56:19;;;;;;;;;;;3.00;99.90;;;;;;2630078;54;19953;-83
2024/01/13 02:58:49;;;;;;;;;;;2.30;99.90;;;;;;2629841;47;19926;-82
2024/01/13 03:01:21;;;;;;;;;;;2.30;99.90;;;;;;2629898;47;19927;-84
2024/01/13 03:03:52;;;;;;;;;;;2.30;99.90;;;;;;2629877;51;20729;-85
2024/01/13 03:06:24;;;;;;;;;;;2.40;99.90;;;;;;2629921;47;19927;-84
2024/01/13 03:08:55;;;;;;;;;;;2.40;99.90;;;;;;2620887;46;19947;-72
2024/01/13 03:11:25;;;;;;;;;;;2.40;99.90;;;;;;2621109;52;19939;-71
2024/01/13 03:13:56;;;;;;;;;;;2.40;99.90;;;;;;2622262;54;19945;-71
2024/01/13 03:16:29;;;;;;;;;;;2.40;99.90;;;;;;2619829;54;19946;-72
2024/01/13 03:18:59;;;;;;;;;;;2.30;99.90;;;;;;2621584;54;19951;-72
2024/01/13 03:21:28;;;;;;;;;;;2.30;99.90;;;;;;2620937;54;19950;-72
2024/01/13 03:23:58;;;;;;;;;;;2.30;99.90;;;;;;2617151;54;19946;-72
2024/01/13 03:26:28;;;;;;;;;;;2.40;99.90;;;;;;2616808;54;20438;-71
2024/01/13 03:28:57;;;;;;;;;;;2.40;99.90;;;;;;2617801;54;19969;-71
2024/01/13 03:31:30;;;;;;;;;;;2.40;99.90;;;;;;2616583;54;19939;-71
2024/01/13 03:33:59;;;;;;;;;;;2.30;99.90;;;;;;2616648;39;20394;-72
2024/01/13 03:36:29;;;;;;;;;;;2.30;99.90;;;;;;2615967;47;20523;-73
2024/01/13 03:38:59;;;;;;;;;;;2.30;99.90;;;;;;2616242;47;20007;-73
2024/01/13 03:41:29;;;;;;;;;;;2.30;99.90;;;;;;2616662;50;19953;-71
2024/01/13 03:43:59;;;;;;;;;;;2.30;99.90;;;;;;2617429;47;19954;-71
2024/01/13 03:46:32;;;;;;;;;;;2.30;99.90;;;;;;2616442;54;19957;-72
2024/01/13 03:48:59;;;;;;;;;;;2.30;99.90;;;;;;2615199;47;19969;-71
2024/01/13 03:51:28;;;;;;;;;;;2.30;99.90;;;;;;2615466;47;19954;-72
2024/01/13 03:53:58;;;;;;;;;;;2.30;99.90;;;;;;2617258;54;19950;-72
2024/01/13 03:56:28;;;;;;;;;;;2.30;99.90;;;;;;2617486;39;20353;-72
2024/01/13 03:58:57;;;;;;;;;;;2.40;99.90;;;;;;2589324;54;19953;-70
2024/01/13 04:01:27;;;;;;;;;;;3.30;99.90;;;;;;2615076;54;19946;-71
2024/01/13 04:03:59;;;;;;;;;;;2.40;99.90;;;;;;2616722;39;20343;-71
2024/01/13 04:06:29;;;;;;;;;;;2.40;99.90;;;;;;2615780;47;19946;-71
2024/01/13 04:08:59;;;;;;;;;;;2.40;99.90;;;;;;2615425;54;19958;-71
2024/01/13 04:11:29;;;;;;;;;;;2.40;99.90;;;;;;2615639;47;19958;-71
2024/01/13 04:13:59;;;;;;;;;;;2.40;99.90;;;;;;2615887;47;19973;-71
2024/01/13 04:16:28;;;;;;;;;;;2.40;99.90;;;;;;2616545;54;19953;-71
2024/01/13 04:19:00;;;;;;;;;;;2.40;99.90;;;;;;2617297;54;19938;-71
2024/01/13 04:21:30;;;;;;;;;;;2.30;99.90;;;;;;2616597;54;20457;-71
2024/01/13 04:24:00;;;;;;;;;;;2.30;99.90;;;;;;2615758;54;19958;-71
2024/01/13 04:26:30;;;;;;;;;;;2.30;99.90;;;;;;2618727;54;20450;-71
2024/01/13 04:29:00;;;;;;;;;;;2.30;99.90;;;;;;2618036;47;19946;-71
2024/01/13 04:31:29;;;;;;;;;;;2.30;99.90;;;;;;2615212;54;20059;-72
2024/01/13 04:34:01;;;;;;;;;;;2.40;99.90;;;;;;2616817;47;19998;-71
2024/01/13 04:36:31;;;;;;;;;;;2.40;99.90;;;;;;2615992;54;19939;-71
2024/01/13 04:39:03;;;;;;;;;;;2.40;99.90;;;;;;2619209;54;19946;-71
2024/01/13 04:41:33;;;;;;;;;;;2.40;99.90;;;;;;2622247;47;19954;-70
2024/01/13 04:44:03;;;;;;;;;;;2.40;99.90;;;;;;2622149;54;20457;-70
2024/01/13 04:46:33;;;;;;;;;;;2.40;99.90;;;;;;2620791;54;19946;-71
2024/01/13 04:49:05;;;;;;;;;;;2.40;99.90;;;;;;2618914;39;20429;-70
2024/01/13 04:51:35;;;;;;;;;;;2.50;99.90;;;;;;2616093;54;19950;-71
2024/01/13 04:54:04;;;;;;;;;;;2.50;99.90;;;;;;2616060;54;20442;-71
2024/01/13 04:56:34;;;;;;;;;;;2.50;99.90;;;;;;2617130;54;19954;-71
2024/01/13 04:59:04;;;;;;;;;;;2.50;99.90;;;;;;2616815;47;20088;-71
2024/01/13 05:01:34;;;;;;;;;;;2.40;99.90;;;;;;2616866;54;19939;-71
2024/01/13 05:04:06;;;;;;;;;;;2.40;99.90;;;;;;2616826;47;19934;-70
2024/01/13 05:06:36;;;;;;;;;;;2.40;99.90;;;;;;2616738;54;19954;-70
2024/01/13 05:09:07;;;;;;;;;;;2.40;99.90;;;;;;2619026;54;19943;-70
2024/01/13 05:11:36;;;;;;;;;;;2.40;99.90;;;;;;2620891;54;20462;-71
2024/01/13 05:14:06;;;;;;;;;;;2.40;99.90;;;;;;2618207;47;19946;-71
2024/01/13 05:16:35;;;;;;;;;;;2.40;99.90;;;;;;2616709;47;19957;-71
2024/01/13 05:19:08;;;;;;;;;;;2.40;99.90;;;;;;2616159;54;19947;-71
2024/01/13 05:21:38;;;;;;;;;;;2.40;99.90;;;;;;2616999;54;20033;-71
2024/01/13 05:24:07;;;;;;;;;;;2.40;99.90;;;;;;2615833;47;19957;-71
2024/01/13 05:26:37;;;;;;;;;;;2.40;99.90;;;;;;2616751;54;19946;-71
2024/01/13 05:29:07;;;;;;;;;;;2.40;99.90;;;;;;2617904;54;19943;-71
2024/01/13 05:31:37;;;;;;;;;;;2.40;99.90;;;;;;2617287;47;19938;-71
2024/01/13 05:34:09;;;;;;;;;;;2.50;99.90;;;;;;2616219;47;20494;-71
2024/01/13 05:36:39;;;;;;;;;;;2.40;99.90;;;;;;2616306;54;19954;-71
2024/01/13 05:39:09;;;;;;;;;;;2.40;99.90;;;;;;2616043;54;20450;-71
2024/01/13 05:41:38;;;;;;;;;;;2.40;99.90;;;;;;2617251;39;20369;-71
2024/01/13 05:44:08;;;;;;;;;;;2.40;99.90;;;;;;2616729;54;19947;-71
2024/01/13 05:46:38;;;;;;;;;;;2.40;99.90;;;;;;2617418;54;19953;-72
2024/01/13 05:49:10;;;;;;;;;;;2.40;99.90;;;;;;2615976;54;19947;-71
2024/01/13 05:51:40;;;;;;;;;;;2.40;99.90;;;;;;2616141;39;20361;-71
2024/01/13 05:54:09;;;;;;;;;;;2.40;99.90;;;;;;2615850;54;20041;-71
2024/01/13 05:56:39;;;;;;;;;;;2.40;99.90;;;;;;2614142;54;19963;-70
2024/01/13 05:59:09;;;;;;;;;;;2.40;99.90;;;;;;2614032;54;19939;-70
2024/01/13 06:01:38;;;;;;;;;;;2.40;99.90;;;;;;2614989;54;19954;-72
2024/01/13 06:04:11;;;;;;;;;;;2.40;99.90;;;;;;2621465;54;19941;-70
2024/01/13 06:06:40;;;;;;;;;;;2.40;99.90;;;;;;2615254;47;19966;-70
2024/01/13 06:09:11;;;;;;;;;;;2.40;99.90;;;;;;2616774;47;19943;-70
2024/01/13 06:11:42;;;;;;;;;;;2.40;99.90;;;;;;2619133;54;20079;-69
2024/01/13 06:14:11;;;;;;;;;;;2.40;99.90;;;;;;2622011;47;19946;-72
2024/01/13 06:16:41;;;;;;;;;;;2.40;99.90;;;;;;2620534;48;20465;-70
2024/01/13 06:19:13;;;;;;;;;;;2.50;99.90;;;;;;2619860;54;19941;-70
2024/01/13 06:21:45;;;;;;;;;;;2.50;99.90;;;;;;2616848;47;19950;-70
2024/01/13 06:24:14;;;;;;;;;;;2.40;99.90;;;;;;2617133;54;19947;-70
2024/01/13 06:26:44;;;;;;;;;;;2.40;99.90;;;;;;2617937;39;20465;-71
2024/01/13 06:29:14;;;;;;;;;;;2.40;99.90;;;;;;2616640;54;20358;-71
2024/01/13 06:31:43;;;;;;;;;;;2.40;99.90;;;;;;2617905;54;19939;-70
2024/01/13 06:34:16;;;;;;;;;;;2.40;99.90;;;;;;2618742;54;19949;-71
2024/01/13 06:36:45;;;;;;;;;;;2.40;99.90;;;;;;2616579;54;19962;-70
2024/01/13 06:39:15;;;;;;;;;;;2.50;99.90;;;;;;2618500;54;19958;-70
2024/01/13 06:41:45;;;;;;;;;;;2.40;99.90;;;;;;2622740;46;19947;-70
2024/01/13 06:44:15;;;;;;;;;;;2.50;99.90;;;;;;2623159;54;19941;-70
2024/01/13 06:46:44;;;;;;;;;;;2.40;99.90;;;;;;2618170;54;19945;-70
2024/01/13 06:49:16;;;;;;;;;;;2.40;99.90;;;;;;2617341;54;19946;-70
2024/01/13 06:51:46;;;;;;;;;;;2.50;99.90;;;;;;2616821;47;19946;-71
2024/01/13 06:54:16;;;;;;;;;;;2.50;99.90;;;;;;2617180;54;19946;-71
2024/01/13 06:56:46;;;;;;;;;;;2.50;99.90;;;;;;2618511;47;19943;-71
2024/01/13 06:59:16;;;;;;;;;;;2.50;99.90;;;;;;2619799;54;19946;-72
2024/01/13 07:01:45;;;;;;;;;;;2.50;99.90;;;;;;2616397;46;20038;-71
2024/01/13 07:04:17;;;;;;;;;;;2.60;99.90;;;;;;2617981;47;19943;-70
2024/01/13 07:06:47;;;;;;;;;;;2.60;99.90;;;;;;2617671;54;19946;-72
2024/01/13 07:09:19;;;;;;;;;;;2.60;99.90;;;;;;2618988;47;19968;-71
2024/01/13 07:11:49;;;;;;;;;;;2.60;99.90;;;;;;2619100;46;19938;-71
2024/01/13 07:14:19;;;;;;;;;;;2.60;99.90;;;;;;2621935;54;20038;-71
2024/01/13 07:16:49;;;;;;;;;;;2.60;99.90;;;;;;2620589;47;19939;-71
2024/01/13 07:19:21;;;;;;;;;;;2.60;99.90;;;;;;2619178;54;19961;-71
2024/01/13 07:21:51;;;;;;;;;;;2.60;99.90;;;;;;2622743;39;20364;-71
2024/01/13 07:24:20;;;;;;;;;;;2.60;99.90;;;;;;2622660;39;20501;-71
2024/01/13 07:26:50;;;;;;;;;;;2.70;99.90;;;;;;2622433;54;19945;-70
2024/01/13 07:29:21;;;;;;;;;;;2.70;99.90;;;;;;2623832;47;20485;-72
2024/01/13 07:31:51;;;;;;;;;;;2.60;99.90;;;;;;2623141;47;19958;-71
2024/01/13 07:34:23;;;;;;;;;;;2.70;99.90;;;;;;2622850;54;19938;-72
2024/01/13 07:36:53;;;;;;;;;;;2.70;99.90;;;;;;2621626;54;19946;-71
2024/01/13 07:39:23;;;;;;;;;;;2.70;99.90;;;;;;2621870;47;19954;-75
2024/01/13 07:41:53;;;;;;;;;;;2.70;99.90;;;;;;2623797;54;19943;-74
2024/01/13 07:44:23;;;;;;;;;;;2.70;99.90;;;;;;2624674;50;19935;-74
2024/01/13 07:46:53;;;;;;;;;;;2.70;99.90;;;;;;2624496;39;20488;-74
2024/01/13 07:49:25;;;;;;;;;;;2.70;99.90;;;;;;2624073;47;19947;-73
2024/01/13 07:51:55;;;;;;;;;;;2.70;99.90;;;;;;2617051;54;19970;-73
2024/01/13 07:54:24;;;;;;;;;;;2.80;99.90;;;;;;2616672;47;19950;-72
2024/01/13 07:56:55;;;;;;;;;;;2.80;99.90;;;;;;2619480;54;19939;-73
2024/01/13 07:59:24;;;;;;;;;;;2.70;99.90;;;;;;2617984;54;19947;-72
2024/01/13 08:01:54;;;;;;;;;;;2.70;99.90;;;;;;2617207;54;20465;-73
2024/01/13 08:04:26;;;;;;;;;;;2.70;99.90;;;;;;2617901;47;19950;-73
2024/01/13 08:06:56;;;;;;;;;;;2.80;99.90;;;;;;2615595;47;20454;-73
2024/01/13 08:09:26;;;;;;;;;;;2.80;99.90;;;;;;2616098;47;20784;-72
2024/01/13 08:11:56;;;;;;;;;;;2.80;99.90;;;;;;2618490;39;20097;-73
2024/01/13 08:14:26;;;;;;;;;;;2.80;99.90;;;;;;2617935;54;19946;-73
2024/01/13 08:16:55;;;;;;;;;;;2.80;99.90;;;;;;2617345;47;19939;-73
2024/01/13 08:19:28;;;;;;;;;;;2.80;99.90;;;;;;2615783;54;20465;-73
2024/01/13 08:21:57;;;;;;;;;;;2.80;99.90;;;;;;2618600;39;20407;-74
2024/01/13 08:24:27;;;;;;;;;;;2.80;99.90;;;;;;2617384;54;19953;-74
2024/01/13 08:26:57;;;;;;;;;;;2.90;99.90;;;;;;2617673;54;19998;-73
2024/01/13 08:29:26;;;;;;;;;;;2.90;99.90;;;;;;2618852;54;19968;-76
2024/01/13 08:31:56;;;;;;;;;;;3.00;99.90;;;;;;2618702;47;20026;-73
2024/01/13 08:34:28;;;;;;;;;;;3.00;99.90;;;;;;2619063;54;19946;-73
2024/01/13 08:36:58;;;;;;;;;;;3.00;99.90;;;;;;2624121;49;19946;-75
2024/01/13 08:39:28;;;;;;;;;;;3.00;99.90;;;;;;2623813;54;19959;-73
2024/01/13 08:41:58;;;;;;;;;;;3.00;99.90;;;;;;2624199;47;20006;-74
2024/01/13 08:44:27;;;;;;;;;;;3.00;99.90;;;;;;2624434;54;19963;-74
2024/01/13 08:46:58;;;;;;;;;;;3.00;99.90;;;;;;2621368;47;19963;-72
2024/01/13 08:49:33;;;;;;;;;;;3.00;99.90;;;;;;2624193;47;19950;-73
2024/01/13 08:52:03;;;;;;;;;;;3.00;99.90;;;;;;2624471;54;19958;-73
2024/01/13 08:54:33;;;;;;;;;;;3.00;99.90;;;;;;2622669;39;20399;-74
2024/01/13 08:57:02;;;;;;;;;;;3.00;99.90;;;;;;2618474;47;19935;-74
2024/01/13 08:59:33;;;;;;;;;;;3.00;99.90;;;;;;2624242;47;19939;-74
2024/01/13 09:02:02;;;;;;;;;;;3.00;99.90;;;;;;2620577;54;19950;-73
2024/01/13 09:04:35;;;;;;;;;;;3.00;99.90;;;;;;2620749;47;19976;-74
2024/01/13 09:07:04;;;;;;;;;;;3.00;99.90;;;;;;2617850;54;20009;-74
2024/01/13 09:09:34;;;;;;;;;;;2.90;99.90;;;;;;2617235;47;19951;-74
2024/01/13 09:12:04;;;;;;;;;;;2.90;99.90;;;;;;2617213;46;19983;-75
2024/01/13 09:14:34;;;;;;;;;;;3.00;99.90;;;;;;2617755;47;20080;-75
2024/01/13 09:17:03;;;;;;;;;;;3.00;99.90;;;;;;2618841;54;19938;-75
2024/01/13 09:19:36;;;;;;;;;;;2.90;99.90;;;;;;2621379;54;20446;-75
2024/01/13 09:22:05;;;;;;;;;;;3.00;99.90;;;;;;2618863;47;19987;-74
2024/01/13 09:24:35;;;;;;;;;;;2.90;99.90;;;;;;2614763;47;19942;-74
2024/01/13 09:27:05;;;;;;;;;;;3.00;99.90;;;;;;2616522;54;19950;-76
2024/01/13 09:29:35;;;;;;;;;;;3.00;99.90;;;;;;2616167;47;19945;-76
2024/01/13 09:32:05;;;;;;;;;;;2.90;99.90;;;;;;2615500;39;20330;-74
2024/01/13 09:34:38;;;;;;;;;;;2.90;99.90;;;;;;2618351;47;19939;-74
2024/01/13 09:37:07;;;;;;;;;;;3.00;99.90;;;;;;2619749;47;19990;-75
2024/01/13 09:39:37;;;;;;;;;;;2.90;99.90;;;;;;2619214;47;19939;-74
2024/01/13 09:42:07;;;;;;;;;;;2.90;99.90;;;;;;2619833;54;19953;-75
2024/01/13 09:44:36;;;;;;;;;;;2.90;99.90;;;;;;2618489;47;19947;-75
2024/01/13 09:47:06;;;;;;;;;;;2.90;99.90;;;;;;2617313;47;19987;-74
2024/01/13 09:49:38;;;;;;;;;;;2.90;99.90;;;;;;2617695;47;19946;-74
2024/01/13 09:52:10;;;;;;;;;;;2.90;99.90;;;;;;2618244;31;20475;-75
2024/01/13 09:54:40;;;;;;;;;;;2.90;99.90;;;;;;2618337;46;20024;-74
2024/01/13 09:57:10;;;;;;;;;;;2.90;99.90;;;;;;2617534;46;19942;-74
2024/01/13 09:59:41;;;;;;;;;;;2.90;99.90;;;;;;2620295;47;19946;-73
2024/01/13 10:02:13;;;;;;;;;;;3.00;99.90;;;;;;2616335;47;19954;-73
2024/01/13 10:12:45;;;;;;;;;;;3.00;99.90;;;;;;2632631;54;19950;-85
2024/01/13 10:17:46;;;;;;;;;;;3.00;99.90;;;;;;2616934;47;19957;-73
2024/01/13 10:20:16;;;;;;;;;;;3.10;99.90;;;;;;2616921;50;19950;-73
2024/01/13 10:22:46;;;;;;;;;;;3.00;99.90;;;;;;2615546;54;19946;-73
2024/01/13 10:25:16;;;;;;;;;;;3.00;99.90;;;;;;2614342;54;19962;-72
2024/01/13 10:27:49;;;;;;;;;;;3.00;99.90;;;;;;2616886;54;19954;-72
2024/01/13 10:30:19;;;;;;;;;;;3.10;99.90;;;;;;2617389;47;19947;-72
2024/01/13 10:32:49;;;;;;;;;;;3.10;99.90;;;;;;2617068;47;19938;-72
2024/01/13 10:35:18;;;;;;;;;;;3.10;99.90;;;;;;2619374;54;19938;-73
2024/01/13 10:37:48;;;;;;;;;;;3.10;99.90;;;;;;2623341;54;19947;-72
2024/01/13 10:40:18;;;;;;;;;;;3.10;99.90;;;;;;2621008;47;19953;-72
2024/01/13 10:42:51;;;;;;;;;;;3.10;99.90;;;;;;2618034;54;19943;-72
2024/01/13 10:45:24;;;;;;;;;;;3.10;99.90;;;;;;2618586;46;19953;-73
2024/01/13 10:47:55;;;;;;;;;;;3.10;99.90;;;;;;2618935;54;19938;-73
2024/01/13 10:50:24;;;;;;;;;;;3.10;99.90;;;;;;2617306;39;20381;-73
2024/01/13 10:53:00;;;;;;;;;;;3.10;99.90;;;;;;2618700;54;19938;-71
2024/01/13 10:55:31;;;;;;;;;;;3.30;99.90;;;;;;2621682;54;19958;-70
2024/01/13 10:58:04;;;;;;;;;;;3.20;99.90;;;;;;2619031;54;20438;-71
2024/01/13 11:00:34;;;;;;;;;;;3.20;99.90;;;;;;2618315;54;19973;-73
2024/01/13 11:03:05;;;;;;;;;;;3.20;99.90;;;;;;2612374;54;19950;-71
2024/01/13 11:05:36;;;;;;;;;;;3.20;99.90;;;;;;2597206;54;20647;-74
2024/01/13 11:08:07;;;;;;;;;;;3.30;99.90;;;;;;2599027;47;20033;-70
2024/01/13 11:10:40;;;;;;;;;;;3.20;99.90;;;;;;2603116;47;19946;-71
2024/01/13 11:13:14;;;;;;;;;;;3.20;99.90;;;;;;2603740;47;19939;-73
2024/01/13 11:15:46;;;;;;;;;;;3.20;99.90;;;;;;2598435;52;21402;-72
2024/01/13 11:18:19;;;;;;;;;;;3.20;99.90;;;;;;2597569;54;19957;-72
2024/01/13 11:21:02;;;;;;;;;;;3.10;99.90;;;;;;2598224;46;19974;-71
2024/01/13 11:23:38;;;;;;;;;;;3.00;99.90;;;;;;2600246;54;20610;-72
2024/01/13 11:26:11;;;;;;;;;;;3.00;99.90;;;;;;2595274;47;19951;-71
2024/01/13 11:28:53;;;;;;;;;;;5.00;99.90;;;;;;2597769;47;20034;-71
2024/01/13 11:31:35;;;;;;;;;;;2.80;99.90;;;;;;2598173;47;19981;-72
2024/01/13 11:34:15;;;;;;;;;;;2.80;99.90;;;;;;2609142;47;19943;-73
2024/01/13 11:36:48;;;;;;;;;;;2.80;99.90;;;;;;2618205;47;19929;-73
2024/01/13 11:39:19;;;;;;;;;;;2.80;99.90;;;;;;2617868;47;19946;-75
2024/01/13 11:41:49;;;;;;;;;;;2.80;99.90;;;;;;2617520;47;19974;-72
2024/01/13 11:44:26;;;;;;;;;;;2.80;99.90;;;;;;2617783;54;20023;-73
2024/01/13 11:47:00;;;;;;;;;;;2.80;99.90;;;;;;2616134;47;19939;-74
2024/01/13 11:49:33;;;;;;;;;;;2.80;99.90;;;;;;2618829;39;20371;-73
2024/01/13 11:52:03;;;;;;;;;;;2.80;99.90;;;;;;2617949;46;19950;-72
2024/01/13 11:54:34;;;;;;;;;;;2.80;99.90;;;;;;2615375;47;20016;-73
2024/01/13 11:57:05;;;;;;;;;;;2.80;99.90;;;;;;2616642;54;20422;-73
2024/01/13 11:59:38;;;;;;;;;;;2.90;99.90;;;;;;2617670;50;19950;-73
2024/01/13 12:02:08;;;;;;;;;;;2.90;99.90;;;;;;2618399;39;20334;-72
2024/01/13 12:04:41;;;;;;;;;;;2.90;99.90;;;;;;2617946;54;20356;-73
2024/01/13 12:07:12;;;;;;;;;;;2.80;99.90;;;;;;2617275;54;19947;-73
2024/01/13 12:09:42;;;;;;;;;;;2.80;99.90;;;;;;2617865;54;20069;-74
2024/01/13 12:12:13;;;;;;;;;;;2.80;99.90;;;;;;2618198;47;19966;-75
2024/01/13 12:14:45;;;;;;;;;;;2.70;99.90;;;;;;2618160;47;19946;-74
2024/01/13 12:17:18;;;;;;;;;;;2.60;99.90;;;;;;2617480;54;20080;-72
2024/01/13 12:19:48;;;;;;;;;;;2.50;99.90;;;;;;2617277;47;19953;-73
2024/01/13 12:22:19;;;;;;;;;;;2.50;99.90;;;;;;2618368;46;20034;-74
2024/01/13 12:24:49;;;;;;;;;;;2.50;99.90;;;;;;2617641;47;20462;-74
2024/01/13 12:27:22;;;;;;;;;;;2.60;99.90;;;;;;2618682;47;19938;-74
2024/01/13 12:30:00;;;;;;;;;;;2.50;99.90;;;;;;2619196;47;19953;-72
2024/01/13 12:32:32;;;;;;;;;;;2.50;99.90;;;;;;2622820;47;19946;-72
2024/01/13 12:35:03;;;;;;;;;;;2.40;99.90;;;;;;2619254;47;20038;-72
2024/01/13 12:37:33;;;;;;;;;;;2.40;99.90;;;;;;2620023;54;19946;-72
2024/01/13 12:40:05;;;;;;;;;;;2.40;99.90;;;;;;2624495;47;19935;-73
2024/01/13 12:42:35;;;;;;;;;;;2.40;99.90;;;;;;2627469;39;20347;-72
2024/01/13 12:45:07;;;;;;;;;;;2.40;99.90;;;;;;2624373;51;19938;-72
2024/01/13 12:47:38;;;;;;;;;;;2.40;99.90;;;;;;2625256;54;19958;-74
2024/01/13 12:50:09;;;;;;;;;;;2.50;99.90;;;;;;2627494;54;19941;-74
2024/01/13 12:52:40;;;;;;;;;;;2.50;99.90;;;;;;2624033;47;20445;-73
2024/01/13 12:55:10;;;;;;;;;;;2.50;99.90;;;;;;2619543;39;20469;-72
2024/01/13 12:57:45;;;;;;;;;;;2.50;99.90;;;;;;2619469;47;19946;-72
2024/01/13 13:00:18;;;;;;;;;;;2.40;99.90;;;;;;2619271;54;20494;-72
2024/01/13 13:02:51;;;;;;;;;;;2.40;99.90;;;;;;2618696;47;19949;-73
2024/01/13 13:05:22;;;;;;;;;;;2.30;99.90;;;;;;2624483;47;19923;-73
2024/01/13 13:07:51;;;;;;;;;;;2.30;99.90;;;;;;2626052;54;19943;-73
2024/01/13 13:10:21;;;;;;;;;;;2.30;99.90;;;;;;2625995;47;19946;-73
2024/01/13 13:12:52;;;;;;;;;;;2.30;99.90;;;;;;2623569;47;20491;-73
2024/01/13 13:15:24;;;;;;;;;;;2.30;99.90;;;;;;2621130;47;19947;-73
2024/01/13 13:17:54;;;;;;;;;;;2.30;99.90;;;;;;2619490;46;20030;-61
2024/01/13 13:20:24;;;;;;;;;;;2.30;99.90;;;;;;2616518;47;19946;-62
2024/01/13 13:22:56;;;;;;;;;;;2.30;99.90;;;;;;2618116;54;19942;-80
2024/01/13 13:25:26;;;;;;;;;;;2.20;99.90;;;;;;2628265;47;19943;-80
2024/01/13 13:27:56;;;;;;;;;;;2.10;99.90;;;;;;2628512;46;19950;-80
2024/01/13 13:30:29;;;;;;;;;;;2.40;99.90;;;;;;2629884;54;19968;-81
2024/01/13 13:32:59;;;;;;;;;;;2.50;99.90;;;;;;2636256;39;20686;-82
2024/01/13 13:35:29;;;;;;;;;;;2.50;99.90;;;;;;2630753;47;19949;-83
2024/01/13 13:38:02;;;;;;;;;;;2.40;99.90;;;;;;2631106;46;19957;-84
2024/01/13 13:40:32;;;;;;;;;;;2.30;99.90;;;;;;2624533;47;19962;-75
2024/01/13 13:43:03;;;;;;;;;;;3.40;99.90;;;;;;2618385;54;19934;-76
2024/01/13 13:45:35;;;;;;;;;;;2.30;99.90;;;;;;2618215;47;19996;-74
2024/01/13 13:48:05;;;;;;;;;;;2.30;99.90;;;;;;2617702;53;19946;-77
2024/01/13 13:50:35;;;;;;;;;;;2.30;99.90;;;;;;2618004;47;19954;-76
2024/01/13 13:53:06;;;;;;;;;;;2.30;99.90;;;;;;2618414;39;20361;-76
2024/01/13 13:55:37;;;;;;;;;;;2.20;99.90;;;;;;2617090;47;19945;-75
2024/01/13 13:58:07;;;;;;;;;;;2.30;99.90;;;;;;2618429;54;19945;-76
2024/01/13 14:00:39;;;;;;;;;;;2.20;99.90;;;;;;2618780;54;19966;-77
2024/01/13 14:03:09;;;;;;;;;;;2.30;99.90;;;;;;2618366;54;19953;-76
2024/01/13 14:05:41;;;;;;;;;;;2.30;99.90;;;;;;2618323;48;19950;-76
2024/01/13 14:08:10;;;;;;;;;;;2.20;99.90;;;;;;2618285;46;19953;-75
2024/01/13 14:10:40;;;;;;;;;;;2.30;99.90;;;;;;2619074;47;19986;-74
2024/01/13 14:13:10;;;;;;;;;;;2.20;99.90;;;;;;2622754;47;19975;-76
2024/01/13 14:15:42;;;;;;;;;;;2.20;99.90;;;;;;2619347;54;19961;-77
2024/01/13 14:18:12;;;;;;;;;;;2.20;99.90;;;;;;2618137;47;20063;-77
2024/01/13 14:20:42;;;;;;;;;;;2.30;99.90;;;;;;2618470;47;20074;-76
2024/01/13 14:23:12;;;;;;;;;;;2.30;99.90;;;;;;2618302;47;19999;-78
2024/01/13 14:25:42;;;;;;;;;;;2.40;99.90;;;;;;2618547;54;19943;-78
2024/01/13 14:28:11;;;;;;;;;;;2.40;99.90;;;;;;2620006;54;19943;-76
2024/01/13 14:30:44;;;;;;;;;;;2.80;99.90;;;;;;2619358;54;19947;-76
2024/01/13 14:33:14;;;;;;;;;;;2.60;99.90;;;;;;2619431;47;19945;-76
2024/01/13 14:35:44;;;;;;;;;;;2.60;99.90;;;;;;2619956;54;19987;-75
2024/01/13 14:38:13;;;;;;;;;;;2.60;99.90;;;;;;2620207;54;19946;-76
2024/01/13 14:40:43;;;;;;;;;;;2.60;99.90;;;;;;2619374;54;19994;-75
2024/01/13 14:43:12;;;;;;;;;;;2.70;99.90;;;;;;2619421;54;20038;-77
2024/01/13 14:45:45;;;;;;;;;;;2.80;99.90;;;;;;2619936;39;20326;-75
2024/01/13 14:48:15;;;;;;;;;;;2.80;99.90;;;;;;2619301;54;19977;-76
2024/01/13 14:50:45;;;;;;;;;;;2.80;99.90;;;;;;2620923;54;20425;-76
2024/01/13 14:53:14;;;;;;;;;;;2.90;99.90;;;;;;2621737;47;19958;-75
2024/01/13 14:55:44;;;;;;;;;;;2.90;99.90;;;;;;2618784;54;19959;-76
2024/01/13 14:58:14;;;;;;;;;;;2.90;99.90;;;;;;2618890;47;19943;-75
2024/01/13 15:00:47;;;;;;;;;;;2.90;99.90;;;;;;2619775;54;20394;-77
2024/01/13 15:03:17;;;;;;;;;;;2.90;99.90;;;;;;2620547;48;19946;-76
2024/01/13 15:05:47;;;;;;;;;;;2.80;99.90;;;;;;2617785;47;20069;-75
2024/01/13 15:08:17;;;;;;;;;;;3.50;99.90;;;;;;2617051;39;20366;-75
2024/01/13 15:10:48;;;;;;;;;;;2.70;99.90;;;;;;2618566;54;19939;-76
2024/01/13 15:13:18;;;;;;;;;;;2.70;99.90;;;;;;2620719;46;19947;-76